createdAt,value
2018-08-16T00:00:44.024Z,20.34
2018-08-16T00:03:14.704Z,20.02
2018-08-16T00:05:45.388Z,19.98
2018-08-16T00:08:16.513Z,20.01
2018-08-16T00:10:47.307Z,19.91
2018-08-16T00:13:17.926Z,19.98
2018-08-16T00:15:48.757Z,19.93
2018-08-16T00:18:18.678Z,19.97
2018-08-16T00:20:49.461Z,19.94
2018-08-16T00:23:20.216Z,19.95
2018-08-16T00:25:50.453Z,19.93
2018-08-16T00:28:21.600Z,19.83
2018-08-16T00:30:52.415Z,19.77
2018-08-16T00:33:22.959Z,19.68
2018-08-16T00:35:54.244Z,19.73
2018-08-16T00:38:24.999Z,19.57
2018-08-16T00:40:55.846Z,19.53
2018-08-16T00:43:26.600Z,19.41
2018-08-16T00:45:57.311Z,19.48
2018-08-16T00:48:28.059Z,19.61
2018-08-16T00:50:58.761Z,19.70
2018-08-16T00:53:29.675Z,19.60
2018-08-16T00:56:00.458Z,19.44
2018-08-16T00:58:30.780Z,19.46
2018-08-16T01:01:02.264Z,19.42
2018-08-16T01:03:32.119Z,19.55
2018-08-16T01:06:02.765Z,19.56
2018-08-16T01:08:33.720Z,19.56
2018-08-16T01:11:04.008Z,19.44
2018-08-16T01:13:34.847Z,19.25
2018-08-16T01:16:05.748Z,19.04
2018-08-16T01:18:37.266Z,18.99
2018-08-16T01:21:08.191Z,18.93
2018-08-16T01:23:39.277Z,18.87
2018-08-16T01:26:10.458Z,19.01
2018-08-16T01:28:41.205Z,18.79
2018-08-16T01:31:12.586Z,18.98
2018-08-16T01:33:43.491Z,18.79
2018-08-16T01:36:14.023Z,18.98
2018-08-16T01:38:44.827Z,19.06
2018-08-16T01:41:15.627Z,18.70
2018-08-16T01:43:46.379Z,18.79
2018-08-16T01:46:17.053Z,18.83
2018-08-16T01:48:46.990Z,18.86
2018-08-16T01:51:17.810Z,18.73
2018-08-16T01:53:48.900Z,18.76
2018-08-16T01:56:19.485Z,18.75
2018-08-16T01:58:50.449Z,18.54
2018-08-16T02:01:20.502Z,18.74
2018-08-16T02:03:51.370Z,18.76
2018-08-16T02:06:21.981Z,18.70
2018-08-16T02:08:52.893Z,18.51
2018-08-16T02:11:23.614Z,18.57
2018-08-16T02:13:54.306Z,18.47
2018-08-16T02:16:25.014Z,18.33
2018-08-16T02:18:55.954Z,18.42
2018-08-16T02:21:26.521Z,18.28
2018-08-16T02:23:56.756Z,18.36
2018-08-16T02:26:27.486Z,18.52
2018-08-16T02:28:58.382Z,18.58
2018-08-16T02:31:29.244Z,18.60
2018-08-16T02:34:00.205Z,18.51
2018-08-16T02:36:30.926Z,18.55
2018-08-16T02:39:01.846Z,18.86
2018-08-16T02:41:32.636Z,18.80
2018-08-16T02:44:03.325Z,18.82
2018-08-16T02:46:33.950Z,18.71
2018-08-16T02:49:04.827Z,18.59
2018-08-16T02:51:35.044Z,18.44
2018-08-16T02:54:06.017Z,18.34
2018-08-16T02:56:36.820Z,18.22
2018-08-16T02:59:07.810Z,18.02
2018-08-16T03:01:38.596Z,18.05
2018-08-16T03:04:09.293Z,17.94
2018-08-16T03:06:39.149Z,18.12
2018-08-16T03:09:11.035Z,18.06
2018-08-16T03:11:41.569Z,18.16
2018-08-16T03:14:12.475Z,18.21
2018-08-16T03:16:43.271Z,18.30
2018-08-16T03:19:13.951Z,18.28
2018-08-16T03:21:44.084Z,18.39
2018-08-16T03:24:14.228Z,18.40
2018-08-16T03:26:45.265Z,18.38
2018-08-16T03:29:16.546Z,18.54
2018-08-16T03:31:46.883Z,18.47
2018-08-16T03:34:17.440Z,18.51
2018-08-16T03:36:48.001Z,18.29
2018-08-16T03:39:18.894Z,18.13
2018-08-16T03:41:49.496Z,17.91
2018-08-16T03:44:20.097Z,18.01
2018-08-16T03:46:51.189Z,18.07
2018-08-16T03:49:21.396Z,18.02
2018-08-16T03:51:52.241Z,17.90
2018-08-16T03:54:22.814Z,17.75
2018-08-16T03:56:53.447Z,18.16
2018-08-16T03:59:24.203Z,18.13
2018-08-16T04:01:54.914Z,17.77
2018-08-16T04:04:26.384Z,18.03
2018-08-16T04:06:57.154Z,17.81
2018-08-16T04:09:27.689Z,17.68
2018-08-16T04:11:58.568Z,17.73
2018-08-16T04:14:29.483Z,17.81
2018-08-16T04:17:00.393Z,18.01
2018-08-16T04:19:31.102Z,17.91
2018-08-16T04:22:01.808Z,18.10
2018-08-16T04:24:32.505Z,18.20
2018-08-16T04:27:03.441Z,18.29
2018-08-16T04:29:33.986Z,18.45
2018-08-16T04:32:04.994Z,18.45
2018-08-16T04:34:35.799Z,18.61
2018-08-16T04:37:06.477Z,18.79
2018-08-16T04:39:37.189Z,19.16
2018-08-16T04:42:08.112Z,19.32
2018-08-16T04:44:38.352Z,19.53
2018-08-16T04:47:09.589Z,19.61
2018-08-16T04:49:40.299Z,19.63
2018-08-16T04:52:10.946Z,19.86
2018-08-16T04:54:41.810Z,20.18
2018-08-16T04:57:12.558Z,20.24
2018-08-16T04:59:43.578Z,20.30
2018-08-16T05:02:14.407Z,20.28
2018-08-16T05:04:45.146Z,20.47
2018-08-16T05:07:15.795Z,20.44
2018-08-16T05:09:46.700Z,20.64
2018-08-16T05:12:17.251Z,20.64
2018-08-16T05:14:47.853Z,20.80
2018-08-16T05:17:17.810Z,20.94
2018-08-16T05:19:48.698Z,21.16
2018-08-16T05:22:18.939Z,21.21
2018-08-16T05:24:49.539Z,21.42
2018-08-16T05:27:19.968Z,21.68
2018-08-16T05:29:50.894Z,21.84
2018-08-16T05:32:21.283Z,21.98
2018-08-16T05:34:52.456Z,22.19
2018-08-16T05:37:22.675Z,22.37
2018-08-16T05:39:53.424Z,22.71
2018-08-16T05:42:24.122Z,22.81
2018-08-16T05:44:54.682Z,22.92
2018-08-16T05:47:25.675Z,23.11
2018-08-16T05:49:57.368Z,23.09
2018-08-16T05:52:28.818Z,23.34
2018-08-16T05:54:59.719Z,23.37
2018-08-16T05:57:30.271Z,23.42
2018-08-16T06:00:01.087Z,23.40
2018-08-16T06:02:32.492Z,23.63
2018-08-16T06:05:03.899Z,23.66
2018-08-16T06:07:34.612Z,23.82
2018-08-16T06:10:06.036Z,23.99
2018-08-16T06:12:36.134Z,24.13
2018-08-16T06:15:08.233Z,24.34
2018-08-16T06:17:39.470Z,24.57
2018-08-16T06:20:12.137Z,24.61
2018-08-16T06:22:43.037Z,24.69
2018-08-16T06:25:14.652Z,24.95
2018-08-16T06:27:45.741Z,25.08
2018-08-16T06:30:17.766Z,25.23
2018-08-16T06:32:48.665Z,25.53
2018-08-16T06:35:20.504Z,25.83
2018-08-16T06:37:51.274Z,25.85
2018-08-16T06:40:22.163Z,25.90
2018-08-16T06:42:53.032Z,25.84
2018-08-16T06:45:24.011Z,25.86
2018-08-16T06:47:54.156Z,26.22
2018-08-16T06:50:25.837Z,26.18
2018-08-16T06:52:56.913Z,26.38
2018-08-16T06:55:27.337Z,26.83
2018-08-16T06:57:58.448Z,26.97
2018-08-16T07:00:29.159Z,27.00
2018-08-16T07:03:00.217Z,27.10
2018-08-16T07:05:31.411Z,27.02
2018-08-16T07:08:02.120Z,27.12
2018-08-16T07:10:32.102Z,27.22
2018-08-16T07:13:02.068Z,27.52
2018-08-16T07:15:32.676Z,27.63
2018-08-16T07:18:03.146Z,27.74
2018-08-16T07:20:34.849Z,27.93
2018-08-16T07:23:05.699Z,27.93
2018-08-16T07:25:37.214Z,28.14
2018-08-16T07:28:07.391Z,28.16
2018-08-16T07:30:38.056Z,28.28
2018-08-16T07:33:09.002Z,28.38
2018-08-16T07:35:39.805Z,28.74
2018-08-16T07:38:11.666Z,28.91
2018-08-16T07:40:43.490Z,29.09
2018-08-16T07:43:14.644Z,29.41
2018-08-16T07:45:46.344Z,29.67
2018-08-16T07:48:17.093Z,29.72
2018-08-16T07:50:47.995Z,29.80
2018-08-16T07:53:18.739Z,29.84
2018-08-16T07:55:49.534Z,30.37
2018-08-16T07:58:19.699Z,30.67
2018-08-16T08:00:50.673Z,30.75
2018-08-16T08:03:21.676Z,30.67
2018-08-16T08:05:52.664Z,30.72
2018-08-16T08:08:23.547Z,31.04
2018-08-16T08:10:54.576Z,31.30
2018-08-16T08:13:24.495Z,31.38
2018-08-16T08:15:55.524Z,31.56
2018-08-16T08:18:25.725Z,31.74
2018-08-16T08:20:55.684Z,31.99
2018-08-16T08:23:26.025Z,32.03
2018-08-16T08:25:55.869Z,32.38
2018-08-16T08:28:26.591Z,32.62
2018-08-16T08:30:57.424Z,32.84
2018-08-16T08:33:27.418Z,33.06
2018-08-16T08:36:08.325Z,32.63
2018-08-16T08:38:39.110Z,32.43
2018-08-16T08:41:09.731Z,32.78
2018-08-16T08:43:51.531Z,33.40
2018-08-16T08:46:22.489Z,33.85
2018-08-16T08:48:53.850Z,34.21
2018-08-16T08:51:25.106Z,34.19
2018-08-16T08:55:03.926Z,34.55
2018-08-16T08:57:45.585Z,34.39
2018-08-16T09:00:16.733Z,35.27
2018-08-16T09:02:47.773Z,35.84
2018-08-16T09:05:18.801Z,36.13
2018-08-16T09:07:49.636Z,35.17
2018-08-16T09:10:57.225Z,35.84
2018-08-16T09:13:38.707Z,36.28
2018-08-16T09:16:11.883Z,36.06
2018-08-16T09:18:42.950Z,35.96
2018-08-16T09:21:14.663Z,36.39
2018-08-16T09:23:45.755Z,36.00
2018-08-16T09:26:22.085Z,36.34
2018-08-16T09:28:52.999Z,36.30
2018-08-16T09:31:34.459Z,35.80
2018-08-16T09:34:20.772Z,35.25
2018-08-16T09:36:51.580Z,34.91
2018-08-16T09:39:22.740Z,34.76
2018-08-16T09:41:53.847Z,34.81
2018-08-16T09:44:24.845Z,34.88
2018-08-16T09:47:10.843Z,34.96
2018-08-16T09:49:50.679Z,35.46
2018-08-16T09:52:22.451Z,35.23
2018-08-16T09:54:53.482Z,35.33
2018-08-16T09:57:24.445Z,35.87
2018-08-16T09:59:55.334Z,36.33
2018-08-16T10:02:26.076Z,36.45
2018-08-16T10:04:57.024Z,37.02
2018-08-16T10:07:27.898Z,36.08
2018-08-16T10:09:58.122Z,35.57
2018-08-16T10:12:28.975Z,35.35
2018-08-16T10:15:00.036Z,35.88
2018-08-16T10:17:31.218Z,35.94
2018-08-16T10:20:01.927Z,36.16
2018-08-16T10:22:32.865Z,36.42
2018-08-16T10:25:03.398Z,36.65
2018-08-16T10:27:34.407Z,36.17
2018-08-16T10:30:06.026Z,36.29
2018-08-16T10:32:36.895Z,37.05
2018-08-16T10:35:08.359Z,37.93
2018-08-16T10:37:39.339Z,37.71
2018-08-16T10:40:10.007Z,37.30
2018-08-16T10:42:40.639Z,37.76
2018-08-16T10:45:11.557Z,37.38
2018-08-16T10:47:42.899Z,37.35
2018-08-16T10:50:13.826Z,37.52
2018-08-16T10:52:44.566Z,37.22
2018-08-16T10:55:15.521Z,36.36
2018-08-16T10:57:46.077Z,35.95
2018-08-16T11:00:17.005Z,35.34
2018-08-16T11:02:47.940Z,35.34
2018-08-16T11:05:18.955Z,35.71
2018-08-16T11:07:50.067Z,35.25
2018-08-16T11:10:21.060Z,35.62
2018-08-16T11:12:51.770Z,35.67
2018-08-16T11:15:23.164Z,36.12
2018-08-16T11:17:54.053Z,35.92
2018-08-16T11:20:24.882Z,35.88
2018-08-16T11:22:55.983Z,35.39
2018-08-16T11:25:27.669Z,35.39
2018-08-16T11:27:58.590Z,35.87
2018-08-16T11:30:29.478Z,35.41
2018-08-16T11:33:00.358Z,35.68
2018-08-16T11:35:31.245Z,35.93
2018-08-16T11:38:02.321Z,36.87
2018-08-16T11:40:32.681Z,37.41
2018-08-16T11:43:03.277Z,37.94
2018-08-16T11:45:34.410Z,38.22
2018-08-16T11:48:05.285Z,37.89
2018-08-16T11:50:36.019Z,38.10
2018-08-16T11:53:06.924Z,38.10
2018-08-16T11:55:37.452Z,38.04
2018-08-16T11:58:07.789Z,36.10
2018-08-16T12:00:38.230Z,36.96
2018-08-16T12:03:08.366Z,37.99
2018-08-16T12:05:38.311Z,38.64
2018-08-16T12:08:08.733Z,38.51
2018-08-16T12:10:38.928Z,37.56
2018-08-16T12:13:09.332Z,37.20
2018-08-16T12:15:39.354Z,37.31
2018-08-16T12:18:09.268Z,37.52
2018-08-16T12:20:39.253Z,36.62
2018-08-16T12:23:09.787Z,36.67
2018-08-16T12:25:39.829Z,37.00
2018-08-16T12:28:09.829Z,36.98
2018-08-16T12:30:39.918Z,36.93
2018-08-16T12:33:09.781Z,36.49
2018-08-16T12:35:39.866Z,36.91
2018-08-16T12:38:10.023Z,37.22
2018-08-16T12:40:40.084Z,37.38
2018-08-16T12:43:10.182Z,37.50
2018-08-16T12:45:40.006Z,36.59
2018-08-16T12:48:10.548Z,36.66
2018-08-16T12:50:40.432Z,37.20
2018-08-16T12:53:10.576Z,37.07
2018-08-16T12:55:40.476Z,37.45
2018-08-16T12:58:10.542Z,38.41
2018-08-16T13:00:40.487Z,38.90
2018-08-16T13:03:10.563Z,38.68
2018-08-16T13:05:40.574Z,38.31
2018-08-16T13:08:10.558Z,38.25
2018-08-16T13:10:40.455Z,38.34
2018-08-16T13:13:10.349Z,37.64
2018-08-16T13:15:40.550Z,37.64
2018-08-16T13:18:10.487Z,37.73
2018-08-16T13:20:40.495Z,37.21
2018-08-16T13:23:10.358Z,37.13
2018-08-16T13:25:40.375Z,37.08
2018-08-16T13:28:10.249Z,37.10
2018-08-16T13:30:40.170Z,37.61
2018-08-16T13:33:10.180Z,37.90
2018-08-16T13:35:40.104Z,37.84
2018-08-16T13:38:10.101Z,37.92
2018-08-16T13:40:40.132Z,37.58
2018-08-16T13:43:10.164Z,37.14
2018-08-16T13:45:40.215Z,37.21
2018-08-16T13:48:10.180Z,36.22
2018-08-16T13:50:40.037Z,36.33
2018-08-16T13:53:09.995Z,36.69
2018-08-16T13:55:40.026Z,36.93
2018-08-16T13:58:10.062Z,36.41
2018-08-16T14:00:39.994Z,36.57
2018-08-16T14:03:10.493Z,36.37
2018-08-16T14:05:40.777Z,37.00
2018-08-16T14:08:11.027Z,37.11
2018-08-16T14:10:41.910Z,37.38
2018-08-16T14:13:12.413Z,37.83
2018-08-16T14:15:43.964Z,38.43
2018-08-16T14:18:14.073Z,38.24
2018-08-16T14:20:45.102Z,37.68
2018-08-16T14:23:16.007Z,37.22
2018-08-16T14:25:46.940Z,36.54
2018-08-16T14:28:17.783Z,36.57
2018-08-16T14:30:48.662Z,36.11
2018-08-16T14:33:19.458Z,35.98
2018-08-16T14:35:50.347Z,35.71
2018-08-16T14:38:21.459Z,35.49
2018-08-16T14:40:52.719Z,35.45
2018-08-16T14:43:23.590Z,35.14
2018-08-16T14:45:54.408Z,35.11
2018-08-16T14:48:25.452Z,35.01
2018-08-16T14:50:56.356Z,34.77
2018-08-16T14:53:27.180Z,34.30
2018-08-16T14:55:57.993Z,34.51
2018-08-16T14:58:28.991Z,34.23
2018-08-16T15:00:59.727Z,34.10
2018-08-16T15:03:30.820Z,34.30
2018-08-16T15:06:01.729Z,34.46
2018-08-16T15:08:32.451Z,34.63
2018-08-16T15:11:03.615Z,34.91
2018-08-16T15:13:33.824Z,34.89
2018-08-16T15:16:04.738Z,34.68
2018-08-16T15:18:35.529Z,34.74
2018-08-16T15:21:05.783Z,34.81
2018-08-16T15:23:36.928Z,34.72
2018-08-16T15:26:08.019Z,34.61
2018-08-16T15:28:37.939Z,34.59
2018-08-16T15:31:08.802Z,34.66
2018-08-16T15:33:39.742Z,34.59
2018-08-16T15:36:10.787Z,34.53
2018-08-16T15:38:41.807Z,34.33
2018-08-16T15:41:12.603Z,34.66
2018-08-16T15:43:43.517Z,34.71
2018-08-16T15:46:14.379Z,34.84
2018-08-16T15:48:45.289Z,34.82
2018-08-16T15:51:16.054Z,34.81
2018-08-16T15:53:46.937Z,34.72
2018-08-16T15:56:17.738Z,34.66
2018-08-16T15:58:47.559Z,34.72
2018-08-16T16:01:17.840Z,34.71
2018-08-16T16:03:48.397Z,34.80
2018-08-16T16:06:18.853Z,34.54
2018-08-16T16:08:49.460Z,34.04
2018-08-16T16:11:19.773Z,33.99
2018-08-16T16:13:50.145Z,34.01
2018-08-16T16:16:20.945Z,34.01
2018-08-16T16:18:51.748Z,34.13
2018-08-16T16:21:22.741Z,34.09
2018-08-16T16:23:53.413Z,34.12
2018-08-16T16:26:24.294Z,33.75
2018-08-16T16:28:55.297Z,33.71
2018-08-16T16:31:26.178Z,33.43
2018-08-16T16:33:57.404Z,33.65
2018-08-16T16:36:28.357Z,33.95
2018-08-16T16:38:59.756Z,33.60
2018-08-16T16:41:31.011Z,33.40
2018-08-16T16:44:02.119Z,33.40
2018-08-16T16:46:33.631Z,33.54
2018-08-16T16:49:05.471Z,33.54
2018-08-16T16:51:36.881Z,33.28
2018-08-16T16:54:07.840Z,33.21
2018-08-16T16:56:39.052Z,33.14
2018-08-16T16:59:10.967Z,32.89
2018-08-16T17:01:41.268Z,32.86
2018-08-16T17:04:11.239Z,32.62
2018-08-16T17:06:41.931Z,32.36
2018-08-16T17:09:13.462Z,32.29
2018-08-16T17:11:43.747Z,32.13
2018-08-16T17:14:13.839Z,32.13
2018-08-16T17:16:43.661Z,31.95
2018-08-16T17:19:13.721Z,31.69
2018-08-16T17:21:44.319Z,31.63
2018-08-16T17:24:14.222Z,31.54
2018-08-16T17:26:45.206Z,31.40
2018-08-16T17:29:15.044Z,31.23
2018-08-16T17:31:44.798Z,31.07
2018-08-16T17:34:14.593Z,30.68
2018-08-16T17:36:44.444Z,30.62
2018-08-16T17:39:14.232Z,30.36
2018-08-16T17:41:44.117Z,30.31
2018-08-16T17:44:14.294Z,30.10
2018-08-16T17:46:44.211Z,29.89
2018-08-16T17:49:14.080Z,29.69
2018-08-16T17:51:43.922Z,29.51
2018-08-16T17:54:13.707Z,29.41
2018-08-16T17:56:43.659Z,29.25
2018-08-16T17:59:13.576Z,29.30
2018-08-16T18:01:43.576Z,29.33
2018-08-16T18:04:13.342Z,29.29
2018-08-16T18:06:43.120Z,29.32
2018-08-16T18:09:12.978Z,29.36
2018-08-16T18:11:43.151Z,29.46
2018-08-16T18:14:13.071Z,29.50
2018-08-16T18:16:43.056Z,29.44
2018-08-16T18:19:12.846Z,29.71
2018-08-16T18:21:42.641Z,29.55
2018-08-16T18:24:12.557Z,29.47
2018-08-16T18:26:42.424Z,29.53
2018-08-16T18:29:12.400Z,28.90
2018-08-16T18:31:42.140Z,29.08
2018-08-16T18:34:11.990Z,29.14
2018-08-16T18:36:41.979Z,28.99
2018-08-16T18:39:11.909Z,28.67
2018-08-16T18:41:42.256Z,28.56
2018-08-16T18:44:12.570Z,28.67
2018-08-16T18:46:42.341Z,28.51
2018-08-16T18:49:12.185Z,28.02
2018-08-16T18:51:42.020Z,27.86
2018-08-16T18:54:12.111Z,27.53
2018-08-16T18:56:42.236Z,27.41
2018-08-16T18:59:12.664Z,27.36
2018-08-16T19:01:42.563Z,27.33
2018-08-16T19:04:12.624Z,27.33
2018-08-16T19:06:42.861Z,27.54
2018-08-16T19:09:13.102Z,27.61
2018-08-16T19:11:43.070Z,27.42
2018-08-16T19:14:12.934Z,27.27
2018-08-16T19:16:42.946Z,27.06
2018-08-16T19:19:13.154Z,26.71
2018-08-16T19:21:43.154Z,26.68
2018-08-16T19:24:13.428Z,26.64
2018-08-16T19:26:43.849Z,26.97
2018-08-16T19:29:13.718Z,27.08
2018-08-16T19:31:43.656Z,26.90
2018-08-16T19:34:14.868Z,26.76
2018-08-16T19:36:46.155Z,26.96
2018-08-16T19:39:17.295Z,26.62
2018-08-16T19:41:49.056Z,26.26
2018-08-16T19:44:20.005Z,26.11
2018-08-16T19:46:51.284Z,25.81
2018-08-16T19:49:22.714Z,25.47
2018-08-16T19:51:54.562Z,25.60
2018-08-16T19:54:26.629Z,25.69
2018-08-16T19:56:58.426Z,25.64
2018-08-16T19:59:29.807Z,25.88
2018-08-16T20:02:01.272Z,25.94
2018-08-16T20:04:32.732Z,25.89
2018-08-16T20:07:03.582Z,25.70
2018-08-16T20:09:34.557Z,25.67
2018-08-16T20:12:04.899Z,25.63
2018-08-16T20:14:35.673Z,25.50
2018-08-16T20:17:06.715Z,25.29
2018-08-16T20:19:38.078Z,25.04
2018-08-16T20:22:14.201Z,25.02
2018-08-16T20:24:45.509Z,24.86
2018-08-16T20:27:16.403Z,24.64
2018-08-16T20:29:48.100Z,24.40
2018-08-16T20:32:18.948Z,24.37
2018-08-16T20:34:49.601Z,24.19
2018-08-16T20:37:20.609Z,24.18
2018-08-16T20:39:51.684Z,24.36
2018-08-16T20:42:23.187Z,24.09
2018-08-16T20:44:54.819Z,23.76
2018-08-16T20:47:25.505Z,23.50
2018-08-16T20:49:56.390Z,23.34
2018-08-16T20:52:27.210Z,23.17
2018-08-16T20:54:57.995Z,23.12
2018-08-16T20:57:27.981Z,23.14
2018-08-16T20:59:58.804Z,23.41
2018-08-16T21:02:29.512Z,23.51
2018-08-16T21:05:00.394Z,23.36
2018-08-16T21:07:31.125Z,23.45
2018-08-16T21:10:02.493Z,23.28
2018-08-16T21:12:33.328Z,23.20
2018-08-16T21:15:04.681Z,23.30
2018-08-16T21:17:35.509Z,23.50
2018-08-16T21:20:07.109Z,23.49
2018-08-16T21:39:22.129Z,22.96
2018-08-16T21:41:53.017Z,22.77
2018-08-16T21:44:23.981Z,22.32
2018-08-16T21:46:54.672Z,21.98
2018-08-16T21:49:25.833Z,21.96
2018-08-16T21:51:56.687Z,21.84
2018-08-16T21:54:27.699Z,21.62
2018-08-16T21:56:58.898Z,21.57
2018-08-16T21:59:29.832Z,21.51
2018-08-16T22:02:00.676Z,21.52
2018-08-16T22:04:32.012Z,21.44
2018-08-16T22:07:06.769Z,21.49
2018-08-16T22:09:37.433Z,21.57
2018-08-16T22:12:09.031Z,21.51
2018-08-16T22:14:40.433Z,21.57
2018-08-16T22:17:11.444Z,21.54
2018-08-16T22:19:42.216Z,21.35
2018-08-16T22:22:13.930Z,21.44
2018-08-16T22:24:44.759Z,21.56
2018-08-16T22:27:15.701Z,21.59
2018-08-16T22:29:46.566Z,21.56
2018-08-16T22:32:17.693Z,21.53
2018-08-16T22:34:49.018Z,21.48
2018-08-16T22:37:19.802Z,21.57
2018-08-16T22:39:50.573Z,21.68
2018-08-16T22:42:21.478Z,21.71
2018-08-16T22:44:52.515Z,21.71
2018-08-16T22:47:23.101Z,21.91
2018-08-16T22:49:53.726Z,21.92
2018-08-16T22:52:25.489Z,22.00
2018-08-16T22:54:56.355Z,21.86
2018-08-16T22:57:28.088Z,21.74
2018-08-16T22:59:58.936Z,21.59
2018-08-16T23:02:29.885Z,21.47
2018-08-16T23:05:00.799Z,21.45
2018-08-16T23:07:32.340Z,21.28
2018-08-16T23:10:03.445Z,21.13
2018-08-16T23:12:34.605Z,21.11
2018-08-16T23:15:06.098Z,21.02
2018-08-16T23:17:36.980Z,21.01
2018-08-16T23:20:08.465Z,20.91
2018-08-16T23:22:40.052Z,20.93
2018-08-16T23:25:11.800Z,20.90
2018-08-16T23:27:42.509Z,20.91
2018-08-16T23:30:15.153Z,20.81
2018-08-16T23:32:46.093Z,20.78
2018-08-16T23:35:17.871Z,20.72
2018-08-16T23:37:48.691Z,20.80
2018-08-16T23:40:19.591Z,20.76
2018-08-16T23:42:50.572Z,20.82
2018-08-16T23:45:22.007Z,20.84
2018-08-16T23:48:03.950Z,20.82
2018-08-16T23:50:34.688Z,20.85
2018-08-16T23:53:05.853Z,20.86
2018-08-16T23:55:36.820Z,20.80
2018-08-16T23:58:07.746Z,20.82
